sensor_id;sensor_type;location;lat;lon;timestamp;pressure;altitude;pressure_sealevel;temperature;humidity
41898;BME280;27576;53.366;-1.498;2023-03-18T00:00:25;98929.50;;;9.53;100.00
41898;BME280;27576;53.366;-1.498;2023-03-18T00:02:51;98941.53;;;9.59;100.00
41898;BME280;27576;53.366;-1.498;2023-03-18T00:05:17;98944.13;;;9.59;100.00
41898;BME280;27576;53.366;-1.498;2023-03-18T00:07:44;98938.94;;;9.59;100.00
41898;BME280;27576;53.366;-1.498;2023-03-18T00:10:12;98940.66;;;9.60;100.00
41898;BME280;27576;53.366;-1.498;2023-03-18T00:12:38;98941.53;;;9.59;100.00
41898;BME280;27576;53.366;-1.498;2023-03-18T00:15:09;98943.25;;;9.57;100.00
41898;BME280;27576;53.366;-1.498;2023-03-18T00:17:35;98926.94;;;9.49;100.00
41898;BME280;27576;53.366;-1.498;2023-03-18T00:20:03;98916.66;;;9.40;100.00
41898;BME280;27576;53.366;-1.498;2023-03-18T00:22:32;98897.78;;;9.28;100.00
41898;BME280;27576;53.366;-1.498;2023-03-18T00:24:57;98922.66;;;9.45;100.00
41898;BME280;27576;53.366;-1.498;2023-03-18T00:27:23;98890.06;;;9.21;100.00
41898;BME280;27576;53.366;-1.498;2023-03-18T00:29:48;98907.25;;;9.29;100.00
41898;BME280;27576;53.366;-1.498;2023-03-18T00:32:14;98893.50;;;9.24;100.00
41898;BME280;27576;53.366;-1.498;2023-03-18T00:34:40;98943.34;;;9.48;100.00
41898;BME280;27576;53.366;-1.498;2023-03-18T00:37:06;98936.41;;;9.47;100.00
41898;BME280;27576;53.366;-1.498;2023-03-18T00:39:32;98939.88;;;9.46;100.00
41898;BME280;27576;53.366;-1.498;2023-03-18T00:41:58;98926.19;;;9.31;100.00
41898;BME280;27576;53.366;-1.498;2023-03-18T00:44:26;98940.75;;;9.45;100.00
41898;BME280;27576;53.366;-1.498;2023-03-18T00:46:51;98922.72;;;9.37;100.00
41898;BME280;27576;53.366;-1.498;2023-03-18T00:49:17;98914.13;;;9.27;100.00
41898;BME280;27576;53.366;-1.498;2023-03-18T00:51:43;98906.38;;;9.27;100.00
41898;BME280;27576;53.366;-1.498;2023-03-18T00:54:11;98934.75;;;9.38;100.00
41898;BME280;27576;53.366;-1.498;2023-03-18T00:56:38;98927.88;;;9.34;100.00
41898;BME280;27576;53.366;-1.498;2023-03-18T00:59:04;98915.03;;;9.28;100.00
41898;BME280;27576;53.366;-1.498;2023-03-18T01:01:30;98917.59;;;9.28;100.00
41898;BME280;27576;53.366;-1.498;2023-03-18T01:03:56;98940.75;;;9.45;100.00
41898;BME280;27576;53.366;-1.498;2023-03-18T01:06:26;98939.91;;;9.44;100.00
41898;BME280;27576;53.366;-1.498;2023-03-18T01:08:53;98933.91;;;9.38;100.00
41898;BME280;27576;53.366;-1.498;2023-03-18T01:11:19;98914.97;;;9.31;100.00
41898;BME280;27576;53.366;-1.498;2023-03-18T01:13:44;98945.06;;;9.46;100.00
41898;BME280;27576;53.366;-1.498;2023-03-18T01:16:10;98948.50;;;9.46;100.00
41898;BME280;27576;53.366;-1.498;2023-03-18T01:18:36;98942.47;;;9.43;100.00
41898;BME280;27576;53.366;-1.498;2023-03-18T01:21:03;98945.06;;;9.46;100.00
41898;BME280;27576;53.366;-1.498;2023-03-18T01:23:28;98944.19;;;9.45;100.00
41898;BME280;27576;53.366;-1.498;2023-03-18T01:25:55;98915.91;;;9.24;100.00
41898;BME280;27576;53.366;-1.498;2023-03-18T01:28:22;98941.63;;;9.44;100.00
41898;BME280;27576;53.366;-1.498;2023-03-18T01:30:48;98944.19;;;9.45;100.00
41898;BME280;27576;53.366;-1.498;2023-03-18T01:33:15;98934.75;;;9.41;100.00
41898;BME280;27576;53.366;-1.498;2023-03-18T01:35:42;98927.03;;;9.30;100.00
41898;BME280;27576;53.366;-1.498;2023-03-18T01:38:07;98933.03;;;9.40;100.00
41898;BME280;27576;53.366;-1.498;2023-03-18T01:40:35;98939.94;;;9.38;100.00
41898;BME280;27576;53.366;-1.498;2023-03-18T01:43:13;98939.94;;;9.38;100.00
41898;BME280;27576;53.366;-1.498;2023-03-18T01:45:43;98914.19;;;9.20;100.00
41898;BME280;27576;53.366;-1.498;2023-03-18T01:48:14;98923.66;;;9.22;100.00
41898;BME280;27576;53.366;-1.498;2023-03-18T01:50:41;98916.75;;;9.24;100.00
41898;BME280;27576;53.366;-1.498;2023-03-18T01:53:11;98915.88;;;9.27;100.00
41898;BME280;27576;53.366;-1.498;2023-03-18T01:55:38;98910.72;;;9.25;100.00
41898;BME280;27576;53.366;-1.498;2023-03-18T01:58:32;98927.00;;;9.38;100.00
41898;BME280;27576;53.366;-1.498;2023-03-18T02:01:13;98915.88;;;9.31;100.00
41898;BME280;27576;53.366;-1.498;2023-03-18T02:03:42;98914.97;;;9.32;100.00
41898;BME280;27576;53.366;-1.498;2023-03-18T02:06:08;98924.44;;;9.40;100.00
41898;BME280;27576;53.366;-1.498;2023-03-18T02:08:36;98896.94;;;9.22;100.00
41898;BME280;27576;53.366;-1.498;2023-03-18T02:11:01;98894.41;;;9.14;100.00
41898;BME280;27576;53.366;-1.498;2023-03-18T02:13:27;98921.00;;;9.36;100.00
41898;BME280;27576;53.366;-1.498;2023-03-18T02:15:58;98928.72;;;9.41;100.00
41898;BME280;27576;53.366;-1.498;2023-03-18T02:18:39;98884.88;;;9.19;100.00
41898;BME280;27576;53.366;-1.498;2023-03-18T02:26:55;98918.38;;;9.44;100.00
41898;BME280;27576;53.366;-1.498;2023-03-18T02:29:25;98908.94;;;9.37;100.00
41898;BME280;27576;53.366;-1.498;2023-03-18T02:31:53;98870.25;;;9.18;100.00
41898;BME280;27576;53.366;-1.498;2023-03-18T02:34:22;98913.25;;;9.36;100.00
41898;BME280;27576;53.366;-1.498;2023-03-18T02:36:49;98891.75;;;9.23;100.00
41898;BME280;27576;53.366;-1.498;2023-03-18T02:39:15;98919.22;;;9.41;100.00
41898;BME280;27576;53.366;-1.498;2023-03-18T02:41:41;98931.28;;;9.44;100.00
41898;BME280;27576;53.366;-1.498;2023-03-18T02:44:10;98902.09;;;9.26;100.00
41898;BME280;27576;53.366;-1.498;2023-03-18T02:46:58;98909.81;;;9.36;100.00
41898;BME280;27576;53.366;-1.498;2023-03-18T02:49:25;98921.78;;;9.46;100.00
41898;BME280;27576;53.366;-1.498;2023-03-18T02:51:54;98926.94;;;9.46;100.00
41898;BME280;27576;53.366;-1.498;2023-03-18T02:54:26;98926.09;;;9.45;100.00
41898;BME280;27576;53.366;-1.498;2023-03-18T02:56:52;98916.66;;;9.40;100.00
41898;BME280;27576;53.366;-1.498;2023-03-18T02:59:19;98922.69;;;9.43;100.00
41898;BME280;27576;53.366;-1.498;2023-03-18T03:01:47;98890.88;;;9.26;100.00
41898;BME280;27576;53.366;-1.498;2023-03-18T03:04:14;98926.97;;;9.43;100.00
41898;BME280;27576;53.366;-1.498;2023-03-18T03:06:41;98881.44;;;9.22;100.00
41898;BME280;27576;53.366;-1.498;2023-03-18T03:09:07;98884.91;;;9.21;100.00
41898;BME280;27576;53.366;-1.498;2023-03-18T03:11:34;98918.38;;;9.41;100.00
41898;BME280;27576;53.366;-1.498;2023-03-18T03:14:00;98911.50;;;9.40;100.00
41898;BME280;27576;53.366;-1.498;2023-03-18T03:16:26;98909.81;;;9.32;100.00
41898;BME280;27576;53.366;-1.498;2023-03-18T03:18:52;98917.53;;;9.37;100.00
41898;BME280;27576;53.366;-1.498;2023-03-18T03:21:18;98919.22;;;9.41;100.00
41898;BME280;27576;53.366;-1.498;2023-03-18T03:23:44;98896.09;;;9.21;100.00
41898;BME280;27576;53.366;-1.498;2023-03-18T03:26:10;98896.94;;;9.23;100.00
41898;BME280;27576;53.366;-1.498;2023-03-18T03:28:36;98908.09;;;9.33;100.00
41898;BME280;27576;53.366;-1.498;2023-03-18T03:31:01;98915.78;;;9.41;100.00
41898;BME280;27576;53.366;-1.498;2023-03-18T03:33:27;98896.91;;;9.26;100.00
41898;BME280;27576;53.366;-1.498;2023-03-18T03:35:53;98914.94;;;9.39;100.00
41898;BME280;27576;53.366;-1.498;2023-03-18T03:38:18;98888.34;;;9.18;100.00
41898;BME280;27576;53.366;-1.498;2023-03-18T03:40:45;98917.56;;;9.32;100.00
41898;BME280;27576;53.366;-1.498;2023-03-18T03:43:14;98921.03;;;9.31;100.00
41898;BME280;27576;53.366;-1.498;2023-03-18T03:45:41;98897.88;;;9.13;100.00
41898;BME280;27576;53.366;-1.498;2023-03-18T03:48:08;98895.31;;;9.07;100.00
41898;BME280;27576;53.366;-1.498;2023-03-18T03:50:34;98927.94;;;9.26;100.00
41898;BME280;27576;53.366;-1.498;2023-03-18T03:53:01;98915.94;;;9.16;100.00
41898;BME280;27576;53.366;-1.498;2023-03-18T03:55:28;98941.72;;;9.25;100.00
41898;BME280;27576;53.366;-1.498;2023-03-18T03:57:54;98926.22;;;9.25;100.00
41898;BME280;27576;53.366;-1.498;2023-03-18T04:00:20;98900.47;;;9.08;100.00
41898;BME280;27576;53.366;-1.498;2023-03-18T04:02:47;98938.28;;;9.25;100.00
41898;BME280;27576;53.366;-1.498;2023-03-18T04:05:15;98907.38;;;9.06;100.00
41898;BME280;27576;53.366;-1.498;2023-03-18T04:07:42;98919.41;;;9.12;100.00
41898;BME280;27576;53.366;-1.498;2023-03-18T04:10:10;98927.13;;;9.18;100.00
41898;BME280;27576;53.366;-1.498;2023-03-18T04:12:36;98928.88;;;9.13;100.00
41898;BME280;27576;53.366;-1.498;2023-03-18T04:15:03;98925.41;;;9.14;100.00
41898;BME280;27576;53.366;-1.498;2023-03-18T04:17:29;98925.44;;;9.11;100.00
41898;BME280;27576;53.366;-1.498;2023-03-18T04:19:54;98907.41;;;9.00;100.00
41898;BME280;27576;53.366;-1.498;2023-03-18T04:22:20;98934.91;;;9.14;100.00
41898;BME280;27576;53.366;-1.498;2023-03-18T04:24:45;98944.34;;;9.15;100.00
41898;BME280;27576;53.366;-1.498;2023-03-18T04:27:11;98952.97;;;9.15;100.00
41898;BME280;27576;53.366;-1.498;2023-03-18T04:29:36;98928.94;;;9.01;100.00
41898;BME280;27576;53.366;-1.498;2023-03-18T04:32:02;98934.06;;;9.10;100.00
41898;BME280;27576;53.366;-1.498;2023-03-18T04:34:28;98910.00;;;8.99;100.00
41898;BME280;27576;53.366;-1.498;2023-03-18T04:36:53;98919.47;;;9.01;100.00
41898;BME280;27576;53.366;-1.498;2023-03-18T04:39:20;98940.91;;;9.14;100.00
41898;BME280;27576;53.366;-1.498;2023-03-18T04:41:45;98921.16;;;9.02;100.00
41898;BME280;27576;53.366;-1.498;2023-03-18T04:44:11;98936.66;;;9.08;100.00
41898;BME280;27576;53.366;-1.498;2023-03-18T04:46:37;98923.78;;;9.01;100.00
41898;BME280;27576;53.366;-1.498;2023-03-18T04:49:03;98934.09;;;9.04;100.00
41898;BME280;27576;53.366;-1.498;2023-03-18T04:51:28;98936.66;;;9.02;100.00
41898;BME280;27576;53.366;-1.498;2023-03-18T04:53:54;98950.41;;;9.10;100.00
41898;BME280;27576;53.366;-1.498;2023-03-18T04:56:19;98934.09;;;9.02;100.00
41898;BME280;27576;53.366;-1.498;2023-03-18T04:58:45;98965.03;;;9.16;100.00
41898;BME280;27576;53.366;-1.498;2023-03-18T05:01:11;98957.34;;;9.08;100.00
41898;BME280;27576;53.366;-1.498;2023-03-18T05:03:40;98969.34;;;9.14;100.00
41898;BME280;27576;53.366;-1.498;2023-03-18T05:06:06;98959.03;;;9.06;100.00
41898;BME280;27576;53.366;-1.498;2023-03-18T05:08:32;98972.81;;;9.13;100.00
41898;BME280;27576;53.366;-1.498;2023-03-18T05:11:01;98945.31;;;8.95;100.00
41898;BME280;27576;53.366;-1.498;2023-03-18T05:13:27;98959.91;;;9.05;100.00
41898;BME280;27576;53.366;-1.498;2023-03-18T05:15:53;98939.31;;;8.93;100.00
41898;BME280;27576;53.366;-1.498;2023-03-18T05:18:19;98965.09;;;9.04;100.00
41898;BME280;27576;53.366;-1.498;2023-03-18T05:20:44;98960.78;;;9.03;100.00
41898;BME280;27576;53.366;-1.498;2023-03-18T05:23:10;98953.94;;;8.93;100.00
41898;BME280;27576;53.366;-1.498;2023-03-18T05:25:35;98970.28;;;8.98;100.00
41898;BME280;27576;53.366;-1.498;2023-03-18T05:28:01;98958.25;;;8.91;100.00
41898;BME280;27576;53.366;-1.498;2023-03-18T05:30:26;98968.59;;;8.92;100.00
41898;BME280;27576;53.366;-1.498;2023-03-18T05:32:52;98976.31;;;8.95;100.00
41898;BME280;27576;53.366;-1.498;2023-03-18T05:35:18;98952.25;;;8.79;100.00
41898;BME280;27576;53.366;-1.498;2023-03-18T05:37:43;98972.03;;;8.90;100.00
41898;BME280;27576;53.366;-1.498;2023-03-18T05:40:09;98953.13;;;8.75;100.00
41898;BME280;27576;53.366;-1.498;2023-03-18T05:42:37;98997.00;;;8.89;100.00
41898;BME280;27576;53.366;-1.498;2023-03-18T05:45:04;98964.34;;;8.71;100.00
41898;BME280;27576;53.366;-1.498;2023-03-18T05:47:30;98969.53;;;8.67;100.00
41898;BME280;27576;53.366;-1.498;2023-03-18T05:49:55;98975.53;;;8.70;100.00
41898;BME280;27576;53.366;-1.498;2023-03-18T05:52:20;98968.66;;;8.66;100.00
41898;BME280;27576;53.366;-1.498;2023-03-18T05:54:46;98968.66;;;8.63;100.00
41898;BME280;27576;53.366;-1.498;2023-03-18T05:57:12;98987.59;;;8.73;100.00
41898;BME280;27576;53.366;-1.498;2023-03-18T05:59:37;98981.56;;;8.68;100.00
41898;BME280;27576;53.366;-1.498;2023-03-18T06:02:03;98964.38;;;8.57;100.00
41898;BME280;27576;53.366;-1.498;2023-03-18T06:04:28;98973.84;;;8.65;100.00
41898;BME280;27576;53.366;-1.498;2023-03-18T06:06:55;98997.06;;;8.74;100.00
41898;BME280;27576;53.366;-1.498;2023-03-18T06:09:21;98994.47;;;8.77;100.00
41898;BME280;27576;53.366;-1.498;2023-03-18T06:11:47;98994.47;;;8.72;100.00
41898;BME280;27576;53.366;-1.498;2023-03-18T06:14:13;98975.56;;;8.58;100.00
41898;BME280;27576;53.366;-1.498;2023-03-18T06:16:40;99001.38;;;8.73;100.00
41898;BME280;27576;53.366;-1.498;2023-03-18T06:19:06;98997.91;;;8.68;100.00
41898;BME280;27576;53.366;-1.498;2023-03-18T06:21:32;98998.81;;;8.69;100.00
41898;BME280;27576;53.366;-1.498;2023-03-18T06:23:59;99015.97;;;8.76;100.00
41898;BME280;27576;53.366;-1.498;2023-03-18T06:26:24;98978.16;;;8.55;100.00
41898;BME280;27576;53.366;-1.498;2023-03-18T06:28:50;99019.44;;;8.78;100.00
41898;BME280;27576;53.366;-1.498;2023-03-18T06:31:16;99015.97;;;8.79;100.00
41898;BME280;27576;53.366;-1.498;2023-03-18T06:33:43;99024.56;;;8.79;100.00
41898;BME280;27576;53.366;-1.498;2023-03-18T06:36:08;99022.84;;;8.80;100.00
41898;BME280;27576;53.366;-1.498;2023-03-18T06:38:35;99030.63;;;8.81;100.00
41898;BME280;27576;53.366;-1.498;2023-03-18T06:41:00;99013.41;;;8.71;100.00
41898;BME280;27576;53.366;-1.498;2023-03-18T06:43:26;99023.72;;;8.76;100.00
41898;BME280;27576;53.366;-1.498;2023-03-18T06:45:52;99028.88;;;8.83;100.00
41898;BME280;27576;53.366;-1.498;2023-03-18T06:48:17;99035.78;;;8.78;100.00
41898;BME280;27576;53.366;-1.498;2023-03-18T06:50:43;99035.78;;;8.81;100.00
41898;BME280;27576;53.366;-1.498;2023-03-18T06:53:09;99020.28;;;8.75;100.00
41898;BME280;27576;53.366;-1.498;2023-03-18T06:55:35;99015.13;;;8.72;100.00
41898;BME280;27576;53.366;-1.498;2023-03-18T06:58:02;99022.84;;;8.80;100.00
41898;BME280;27576;53.366;-1.498;2023-03-18T07:00:27;99010.81;;;8.71;100.00
41898;BME280;27576;53.366;-1.498;2023-03-18T07:02:52;99042.63;;;8.92;100.00
41898;BME280;27576;53.366;-1.498;2023-03-18T07:05:18;99036.63;;;8.85;100.00
41898;BME280;27576;53.366;-1.498;2023-03-18T07:07:44;99014.25;;;8.78;100.00
41898;BME280;27576;53.366;-1.498;2023-03-18T07:10:20;99053.81;;;8.98;100.00
41898;BME280;27576;53.366;-1.498;2023-03-18T07:12:46;99024.59;;;8.81;100.00
41898;BME280;27576;53.366;-1.498;2023-03-18T07:15:13;99025.44;;;8.86;100.00
41898;BME280;27576;53.366;-1.498;2023-03-18T07:17:39;99038.34;;;8.92;100.00
41898;BME280;27576;53.366;-1.498;2023-03-18T07:20:04;99040.88;;;9.00;100.00
41898;BME280;27576;53.366;-1.498;2023-03-18T07:22:31;99063.25;;;9.13;100.00
41898;BME280;27576;53.366;-1.498;2023-03-18T07:24:56;99039.16;;;9.03;100.00
41898;BME280;27576;53.366;-1.498;2023-03-18T07:27:22;99018.53;;;8.93;100.00
41898;BME280;27576;53.366;-1.498;2023-03-18T07:29:48;99065.78;;;9.25;100.00
41898;BME280;27576;53.366;-1.498;2023-03-18T07:32:13;99047.72;;;9.19;100.00
41898;BME280;27576;53.366;-1.498;2023-03-18T07:34:39;99046.84;;;9.23;100.00
41898;BME280;27576;53.366;-1.498;2023-03-18T07:37:04;99015.03;;;9.06;100.00
41898;BME280;27576;53.366;-1.498;2023-03-18T07:39:29;99056.31;;;9.23;100.00
41898;BME280;27576;53.366;-1.498;2023-03-18T07:41:55;99065.78;;;9.28;100.00
41898;BME280;27576;53.366;-1.498;2023-03-18T07:44:21;99050.28;;;9.19;100.00
41898;BME280;27576;53.366;-1.498;2023-03-18T07:46:46;99015.94;;;9.00;100.00
41898;BME280;27576;53.366;-1.498;2023-03-18T07:49:12;99048.56;;;9.23;100.00
41898;BME280;27576;53.366;-1.498;2023-03-18T07:51:37;99009.88;;;9.06;100.00
41898;BME280;27576;53.366;-1.498;2023-03-18T07:54:03;99034.75;;;9.27;100.00
41898;BME280;27576;53.366;-1.498;2023-03-18T07:56:29;99058.84;;;9.44;100.00
41898;BME280;27576;53.366;-1.498;2023-03-18T07:58:54;99056.25;;;9.43;100.00
41898;BME280;27576;53.366;-1.498;2023-03-18T08:01:20;99034.75;;;9.30;100.00
41898;BME280;27576;53.366;-1.498;2023-03-18T08:03:46;99044.22;;;9.32;100.00
41898;BME280;27576;53.366;-1.498;2023-03-18T08:06:13;99057.16;;;9.32;100.00
41898;BME280;27576;53.366;-1.498;2023-03-18T08:08:40;99070.03;;;9.45;100.00
41898;BME280;27576;53.366;-1.498;2023-03-18T08:11:06;99071.75;;;9.43;100.00
41898;BME280;27576;53.366;-1.498;2023-03-18T08:13:34;99068.28;;;9.53;100.00
41898;BME280;27576;53.366;-1.498;2023-03-18T08:15:59;99075.09;;;9.69;100.00
41898;BME280;27576;53.366;-1.498;2023-03-18T08:18:25;99050.13;;;9.62;100.00
41898;BME280;27576;53.366;-1.498;2023-03-18T08:20:51;99052.69;;;9.68;100.00
41898;BME280;27576;53.366;-1.498;2023-03-18T08:23:17;99056.06;;;9.78;100.00
41898;BME280;27576;53.366;-1.498;2023-03-18T08:25:46;99081.78;;;10.10;100.00
41898;BME280;27576;53.366;-1.498;2023-03-18T08:28:12;99084.25;;;10.24;100.00
41898;BME280;27576;53.366;-1.498;2023-03-18T08:30:38;99074.78;;;10.23;100.00
41898;BME280;27576;53.366;-1.498;2023-03-18T08:33:03;99104.06;;;10.34;100.00
41898;BME280;27576;53.366;-1.498;2023-03-18T08:35:29;99097.13;;;10.36;100.00
41898;BME280;27576;53.366;-1.498;2023-03-18T08:37:55;99085.97;;;10.31;100.00
41898;BME280;27576;53.366;-1.498;2023-03-18T08:40:21;99056.63;;;10.21;100.00
41898;BME280;27576;53.366;-1.498;2023-03-18T08:42:47;99091.00;;;10.48;100.00
41898;BME280;27576;53.366;-1.498;2023-03-18T08:45:12;99084.94;;;10.52;100.00
41898;BME280;27576;53.366;-1.498;2023-03-18T08:47:38;99051.44;;;10.30;100.00
41898;BME280;27576;53.366;-1.498;2023-03-18T08:50:04;99047.03;;;10.40;100.00
41898;BME280;27576;53.366;-1.498;2023-03-18T08:52:30;99073.66;;;10.59;100.00
41898;BME280;27576;53.366;-1.498;2023-03-18T08:54:56;99053.81;;;10.58;100.00
41898;BME280;27576;53.366;-1.498;2023-03-18T08:57:23;99045.91;;;10.70;100.00
41898;BME280;27576;53.366;-1.498;2023-03-18T08:59:49;99080.16;;;11.00;100.00
41898;BME280;27576;53.366;-1.498;2023-03-18T09:02:15;99041.47;;;10.80;100.00
41898;BME280;27576;53.366;-1.498;2023-03-18T09:04:41;99091.25;;;11.14;100.00
41898;BME280;27576;53.366;-1.498;2023-03-18T09:07:07;99094.59;;;11.25;100.00
41898;BME280;27576;53.366;-1.498;2023-03-18T09:09:32;99063.47;;;11.25;100.00
41898;BME280;27576;53.366;-1.498;2023-03-18T09:11:57;99060.81;;;11.30;100.00
41898;BME280;27576;53.366;-1.498;2023-03-18T09:14:23;99086.44;;;11.58;100.00
41898;BME280;27576;53.366;-1.498;2023-03-18T09:16:48;99099.28;;;11.68;100.00
41898;BME280;27576;53.366;-1.498;2023-03-18T09:19:13;99079.47;;;11.61;100.00
41898;BME280;27576;53.366;-1.498;2023-03-18T09:21:39;99093.16;;;11.71;100.00
41898;BME280;27576;53.366;-1.498;2023-03-18T09:24:04;99094.88;;;11.73;100.00
41898;BME280;27576;53.366;-1.498;2023-03-18T09:26:29;99066.53;;;11.60;100.00
41898;BME280;27576;53.366;-1.498;2023-03-18T09:28:55;99079.38;;;11.69;100.00
41898;BME280;27576;53.366;-1.498;2023-03-18T09:31:20;99077.66;;;11.66;100.00
41898;BME280;27576;53.366;-1.498;2023-03-18T09:33:46;99092.44;;;11.61;100.00
41898;BME280;27576;53.366;-1.498;2023-03-18T09:36:11;99111.47;;;11.63;100.00
41898;BME280;27576;53.366;-1.498;2023-03-18T09:38:37;99103.03;;;11.43;100.00
41898;BME280;27576;53.366;-1.498;2023-03-18T09:41:16;99055.91;;;11.07;100.00
41898;BME280;27576;53.366;-1.498;2023-03-18T09:44:15;99097.13;;;11.30;100.00
41898;BME280;27576;53.366;-1.498;2023-03-18T09:49:47;99108.88;;;11.62;100.00
41898;BME280;27576;53.366;-1.498;2023-03-18T09:52:24;99085.56;;;11.57;100.00
41898;BME280;27576;53.366;-1.498;2023-03-18T09:55:00;99098.28;;;11.77;100.00
41898;BME280;27576;53.366;-1.498;2023-03-18T09:57:43;99102.44;;;11.93;100.00
41898;BME280;27576;53.366;-1.498;2023-03-18T10:00:27;99095.50;;;11.94;100.00
41898;BME280;27576;53.366;-1.498;2023-03-18T10:03:05;99116.88;;;12.13;100.00
41898;BME280;27576;53.366;-1.498;2023-03-18T10:05:49;99105.81;;;12.00;100.00
41898;BME280;27576;53.366;-1.498;2023-03-18T10:08:23;99095.59;;;11.88;100.00
41898;BME280;27576;53.366;-1.498;2023-03-18T10:11:04;99120.47;;;12.04;100.00
41898;BME280;27576;53.366;-1.498;2023-03-18T10:13:40;99124.63;;;12.16;100.00
41898;BME280;27576;53.366;-1.498;2023-03-18T10:16:12;99090.22;;;12.00;100.00
41898;BME280;27576;53.366;-1.498;2023-03-18T10:18:42;99122.78;;;12.24;100.00
41898;BME280;27576;53.366;-1.498;2023-03-18T10:24:12;99130.91;;;12.60;100.00
41898;BME280;27576;53.366;-1.498;2023-03-18T10:34:56;99128.59;;;12.94;100.00
41898;BME280;27576;53.366;-1.498;2023-03-18T10:37:54;99127.78;;;12.90;100.00
41898;BME280;27576;53.366;-1.498;2023-03-18T10:40:23;99126.13;;;12.86;100.00
41898;BME280;27576;53.366;-1.498;2023-03-18T10:42:49;99125.28;;;12.86;100.00
41898;BME280;27576;53.366;-1.498;2023-03-18T10:45:30;99100.06;;;12.91;100.00
41898;BME280;27576;53.366;-1.498;2023-03-18T10:48:09;99111.00;;;13.10;100.00
41898;BME280;27576;53.366;-1.498;2023-03-18T10:50:51;99120.28;;;13.24;100.00
41898;BME280;27576;53.366;-1.498;2023-03-18T10:56:15;99109.06;;;13.21;100.00
41898;BME280;27576;53.366;-1.498;2023-03-18T10:58:41;99103.06;;;13.16;100.00
41898;BME280;27576;53.366;-1.498;2023-03-18T11:01:09;99129.56;;;13.38;100.00
41898;BME280;27576;53.366;-1.498;2023-03-18T11:03:46;99118.09;;;13.48;100.00
41898;BME280;27576;53.366;-1.498;2023-03-18T11:06:34;99111.16;;;13.47;100.00
41898;BME280;27576;53.366;-1.498;2023-03-18T11:09:05;99095.59;;;13.44;100.00
41898;BME280;27576;53.366;-1.498;2023-03-18T11:11:34;99117.72;;;13.68;100.00
41898;BME280;27576;53.366;-1.498;2023-03-18T11:14:04;99079.63;;;13.64;100.00
41898;BME280;27576;53.366;-1.498;2023-03-18T11:24:38;99114.16;;;14.49;100.00
41898;BME280;27576;53.366;-1.498;2023-03-18T11:29:40;99119.97;;;14.23;100.00
41898;BME280;27576;53.366;-1.498;2023-03-18T11:32:23;99108.09;;;14.10;100.00
41898;BME280;27576;53.366;-1.498;2023-03-18T11:35:00;99123.19;;;14.35;100.00
41898;BME280;27576;53.366;-1.498;2023-03-18T11:37:38;99119.63;;;14.39;100.00
41898;BME280;27576;53.366;-1.498;2023-03-18T11:42:39;99124.19;;;14.29;100.00
41898;BME280;27576;53.366;-1.498;2023-03-18T11:48:01;99118.56;;;14.46;100.00
41898;BME280;27576;53.366;-1.498;2023-03-18T11:50:37;99106.94;;;14.61;100.00
41898;BME280;27576;53.366;-1.498;2023-03-18T11:53:19;99115.97;;;14.83;100.00
41898;BME280;27576;53.366;-1.498;2023-03-18T11:55:57;99090.19;;;14.71;100.00
41898;BME280;27576;53.366;-1.498;2023-03-18T12:01:12;99091.56;;;14.50;100.00
41898;BME280;27576;53.366;-1.498;2023-03-18T12:04:03;99113.84;;;14.63;100.00
41898;BME280;27576;53.366;-1.498;2023-03-18T12:06:40;99102.91;;;14.47;100.00
41898;BME280;27576;53.366;-1.498;2023-03-18T12:09:24;99114.47;;;14.36;100.00
41898;BME280;27576;53.366;-1.498;2023-03-18T12:14:48;99107.41;;;14.04;100.00
41898;BME280;27576;53.366;-1.498;2023-03-18T12:17:39;99109.28;;;13.97;100.00
41898;BME280;27576;53.366;-1.498;2023-03-18T12:33:41;99054.59;;;13.12;100.00
41898;BME280;27576;53.366;-1.498;2023-03-18T12:39:01;99082.69;;;13.41;100.00
41898;BME280;27576;53.366;-1.498;2023-03-18T12:42:01;99103.66;;;13.75;100.00
41898;BME280;27576;53.366;-1.498;2023-03-18T12:44:56;99102.41;;;13.93;100.00
41898;BME280;27576;53.366;-1.498;2023-03-18T12:49:53;99099.56;;;14.42;100.00
41898;BME280;27576;53.366;-1.498;2023-03-18T12:55:29;99075.47;;;16.51;100.00
41898;BME280;27576;53.366;-1.498;2023-03-18T12:57:58;99086.09;;;17.71;100.00
41898;BME280;27576;53.366;-1.498;2023-03-18T13:00:32;99081.97;;;18.97;100.00
41898;BME280;27576;53.366;-1.498;2023-03-18T13:08:23;99078.22;;;20.38;75.98
41898;BME280;27576;53.366;-1.498;2023-03-18T13:10:57;99064.38;;;20.16;77.87
41898;BME280;27576;53.366;-1.498;2023-03-18T13:13:30;99067.69;;;19.64;79.77
41898;BME280;27576;53.366;-1.498;2023-03-18T13:15:58;99068.47;;;19.06;82.49
41898;BME280;27576;53.366;-1.498;2023-03-18T13:18:37;99068.50;;;18.42;81.57
41898;BME280;27576;53.366;-1.498;2023-03-18T13:21:04;99053.06;;;17.90;80.38
41898;BME280;27576;53.366;-1.498;2023-03-18T13:26:49;99071.63;;;17.14;81.25
41898;BME280;27576;53.366;-1.498;2023-03-18T13:32:00;99073.88;;;17.95;90.03
41898;BME280;27576;53.366;-1.498;2023-03-18T13:40:03;99034.50;;;21.22;75.98
41898;BME280;27576;53.366;-1.498;2023-03-18T13:42:35;99037.66;;;22.41;69.01
41898;BME280;27576;53.366;-1.498;2023-03-18T13:47:35;99050.78;;;24.30;61.41
41898;BME280;27576;53.366;-1.498;2023-03-18T13:52:39;99032.19;;;23.90;55.62
41898;BME280;27576;53.366;-1.498;2023-03-18T13:57:46;99033.31;;;21.61;63.21
41898;BME280;27576;53.366;-1.498;2023-03-18T14:00:34;99050.03;;;20.76;67.92
41898;BME280;27576;53.366;-1.498;2023-03-18T14:08:50;99049.56;;;18.78;74.77
41898;BME280;27576;53.366;-1.498;2023-03-18T14:14:01;98982.06;;;17.29;72.49
41898;BME280;27576;53.366;-1.498;2023-03-18T14:16:47;99049.09;;;17.33;76.21
41898;BME280;27576;53.366;-1.498;2023-03-18T14:21:50;99046.06;;;16.69;75.45
41898;BME280;27576;53.366;-1.498;2023-03-18T14:26:47;99042.72;;;16.12;80.41
41898;BME280;27576;53.366;-1.498;2023-03-18T14:32:03;99024.94;;;15.67;79.48
41898;BME280;27576;53.366;-1.498;2023-03-18T14:34:56;99027.84;;;15.57;87.16
41898;BME280;27576;53.366;-1.498;2023-03-18T14:37:31;99032.47;;;15.47;81.94
41898;BME280;27576;53.366;-1.498;2023-03-18T14:40:00;99050.81;;;15.44;83.30
41898;BME280;27576;53.366;-1.498;2023-03-18T14:45:08;99043.44;;;15.29;88.02